X  CloseMetar Aviation Weather Data     EGGD Bristol Airport

Temperature

14°C Temperature

14°C Dewpoint

100% Humidity



Wind

10 KM/H

 6 MPH

 3 M/S

 5 KTS



210°
South South
West
Current Conditions

Mist Mist
Pressure 1002.92 (hPa) - 29.62 (in)
Visibility 3.1 (mi) - 5 (km)
Airport
Airport-code EGGD

Location Bristol Airport 9 (mi)

Metar:
EGGD 230050Z AUTO 21005KT 180V240 4700 BR BKN004 BKN017 14/14 Q1003

Time: 2020-09-23 01:50